sensor_id;sensor_type;location;lat;lon;timestamp;temperature;humidity
35373;DHT22;21476;51.652;7.852;2022-07-23T00:01:22;16.90;99.90
35373;DHT22;21476;51.652;7.852;2022-07-23T00:03:48;16.90;99.90
35373;DHT22;21476;51.652;7.852;2022-07-23T00:06:14;16.90;99.90
35373;DHT22;21476;51.652;7.852;2022-07-23T00:08:39;16.90;99.90
35373;DHT22;21476;51.652;7.852;2022-07-23T00:11:05;16.90;99.90
35373;DHT22;21476;51.652;7.852;2022-07-23T00:13:31;16.90;99.90
35373;DHT22;21476;51.652;7.852;2022-07-23T00:15:57;16.90;99.90
35373;DHT22;21476;51.652;7.852;2022-07-23T00:18:22;16.90;99.90
35373;DHT22;21476;51.652;7.852;2022-07-23T00:20:48;16.90;99.90
35373;DHT22;21476;51.652;7.852;2022-07-23T00:23:14;16.90;99.90
35373;DHT22;21476;51.652;7.852;2022-07-23T00:25:40;16.90;99.90
35373;DHT22;21476;51.652;7.852;2022-07-23T00:28:05;16.90;99.90
35373;DHT22;21476;51.652;7.852;2022-07-23T00:30:31;16.80;99.90
35373;DHT22;21476;51.652;7.852;2022-07-23T00:33:00;16.80;99.90
35373;DHT22;21476;51.652;7.852;2022-07-23T00:35:27;16.70;99.90
35373;DHT22;21476;51.652;7.852;2022-07-23T00:37:54;16.60;99.90
35373;DHT22;21476;51.652;7.852;2022-07-23T00:40:20;16.60;99.90
35373;DHT22;21476;51.652;7.852;2022-07-23T00:42:45;16.40;99.90
35373;DHT22;21476;51.652;7.852;2022-07-23T00:45:11;16.40;99.90
35373;DHT22;21476;51.652;7.852;2022-07-23T00:47:37;16.40;99.90
35373;DHT22;21476;51.652;7.852;2022-07-23T00:50:05;16.30;99.90
35373;DHT22;21476;51.652;7.852;2022-07-23T00:52:32;16.30;99.90
35373;DHT22;21476;51.652;7.852;2022-07-23T00:54:58;16.30;99.90
35373;DHT22;21476;51.652;7.852;2022-07-23T00:57:24;16.20;99.90
35373;DHT22;21476;51.652;7.852;2022-07-23T00:59:50;16.10;99.90
35373;DHT22;21476;51.652;7.852;2022-07-23T01:02:16;16.10;99.90
35373;DHT22;21476;51.652;7.852;2022-07-23T01:04:42;16.10;99.90
35373;DHT22;21476;51.652;7.852;2022-07-23T01:07:07;16.10;99.90
35373;DHT22;21476;51.652;7.852;2022-07-23T01:09:33;16.10;99.90
35373;DHT22;21476;51.652;7.852;2022-07-23T01:11:59;16.00;99.90
35373;DHT22;21476;51.652;7.852;2022-07-23T01:14:25;16.00;99.90
35373;DHT22;21476;51.652;7.852;2022-07-23T01:16:52;15.90;99.90
35373;DHT22;21476;51.652;7.852;2022-07-23T01:19:18;15.90;99.90
35373;DHT22;21476;51.652;7.852;2022-07-23T01:21:46;15.90;99.90
35373;DHT22;21476;51.652;7.852;2022-07-23T01:24:12;15.90;99.90
35373;DHT22;21476;51.652;7.852;2022-07-23T01:26:42;15.90;99.90
35373;DHT22;21476;51.652;7.852;2022-07-23T01:29:08;15.80;99.90
35373;DHT22;21476;51.652;7.852;2022-07-23T01:31:34;15.90;99.90
35373;DHT22;21476;51.652;7.852;2022-07-23T01:33:59;16.00;99.90
35373;DHT22;21476;51.652;7.852;2022-07-23T01:36:25;15.90;99.90
35373;DHT22;21476;51.652;7.852;2022-07-23T01:38:51;15.90;99.90
35373;DHT22;21476;51.652;7.852;2022-07-23T01:41:17;15.90;99.90
35373;DHT22;21476;51.652;7.852;2022-07-23T01:43:43;15.80;99.90
35373;DHT22;21476;51.652;7.852;2022-07-23T01:46:08;15.70;99.90
35373;DHT22;21476;51.652;7.852;2022-07-23T01:48:34;15.70;99.90
35373;DHT22;21476;51.652;7.852;2022-07-23T01:51:00;15.70;99.90
35373;DHT22;21476;51.652;7.852;2022-07-23T01:53:26;15.70;99.90
35373;DHT22;21476;51.652;7.852;2022-07-23T01:55:51;15.80;99.90
35373;DHT22;21476;51.652;7.852;2022-07-23T01:58:17;15.80;99.90
35373;DHT22;21476;51.652;7.852;2022-07-23T02:00:43;15.80;99.90
35373;DHT22;21476;51.652;7.852;2022-07-23T02:03:08;15.80;99.90
35373;DHT22;21476;51.652;7.852;2022-07-23T02:05:34;15.70;99.90
35373;DHT22;21476;51.652;7.852;2022-07-23T02:08:00;15.70;99.90
35373;DHT22;21476;51.652;7.852;2022-07-23T02:10:26;15.70;99.90
35373;DHT22;21476;51.652;7.852;2022-07-23T02:12:52;15.70;99.90
35373;DHT22;21476;51.652;7.852;2022-07-23T02:15:18;15.70;99.90
35373;DHT22;21476;51.652;7.852;2022-07-23T02:17:44;15.70;99.90
35373;DHT22;21476;51.652;7.852;2022-07-23T02:20:11;15.70;99.90
35373;DHT22;21476;51.652;7.852;2022-07-23T02:22:37;15.70;99.90
35373;DHT22;21476;51.652;7.852;2022-07-23T02:25:04;15.60;99.90
35373;DHT22;21476;51.652;7.852;2022-07-23T02:27:30;15.70;99.90
35373;DHT22;21476;51.652;7.852;2022-07-23T02:29:55;15.70;99.90
35373;DHT22;21476;51.652;7.852;2022-07-23T02:32:21;15.70;99.90
35373;DHT22;21476;51.652;7.852;2022-07-23T02:34:47;15.60;99.90
35373;DHT22;21476;51.652;7.852;2022-07-23T02:37:13;15.70;99.90
35373;DHT22;21476;51.652;7.852;2022-07-23T02:39:40;15.70;99.90
35373;DHT22;21476;51.652;7.852;2022-07-23T02:42:06;15.70;99.90
35373;DHT22;21476;51.652;7.852;2022-07-23T02:44:31;15.70;99.90
35373;DHT22;21476;51.652;7.852;2022-07-23T02:46:57;15.70;99.90
35373;DHT22;21476;51.652;7.852;2022-07-23T02:49:23;15.60;99.90
35373;DHT22;21476;51.652;7.852;2022-07-23T02:51:49;15.70;99.90
35373;DHT22;21476;51.652;7.852;2022-07-23T02:54:14;15.70;99.90
35373;DHT22;21476;51.652;7.852;2022-07-23T02:56:40;15.60;99.90
35373;DHT22;21476;51.652;7.852;2022-07-23T02:59:06;15.70;99.90
35373;DHT22;21476;51.652;7.852;2022-07-23T03:01:31;15.60;99.90
35373;DHT22;21476;51.652;7.852;2022-07-23T03:03:57;15.60;99.90
35373;DHT22;21476;51.652;7.852;2022-07-23T03:06:23;15.50;99.90
35373;DHT22;21476;51.652;7.852;2022-07-23T03:08:48;15.50;99.90
35373;DHT22;21476;51.652;7.852;2022-07-23T03:11:14;15.50;99.90
35373;DHT22;21476;51.652;7.852;2022-07-23T03:13:40;15.40;99.90
35373;DHT22;21476;51.652;7.852;2022-07-23T03:16:06;15.40;99.90
35373;DHT22;21476;51.652;7.852;2022-07-23T03:18:33;15.30;99.90
35373;DHT22;21476;51.652;7.852;2022-07-23T03:20:59;15.20;99.90
35373;DHT22;21476;51.652;7.852;2022-07-23T03:23:24;15.20;99.90
35373;DHT22;21476;51.652;7.852;2022-07-23T03:25:50;15.20;99.90
35373;DHT22;21476;51.652;7.852;2022-07-23T03:28:17;15.20;99.90
35373;DHT22;21476;51.652;7.852;2022-07-23T03:30:45;15.10;99.90
35373;DHT22;21476;51.652;7.852;2022-07-23T03:33:16;15.10;99.90
35373;DHT22;21476;51.652;7.852;2022-07-23T03:35:45;15.10;99.90
35373;DHT22;21476;51.652;7.852;2022-07-23T03:38:12;15.10;99.90
35373;DHT22;21476;51.652;7.852;2022-07-23T03:40:38;15.10;99.90
35373;DHT22;21476;51.652;7.852;2022-07-23T03:43:03;15.00;99.90
35373;DHT22;21476;51.652;7.852;2022-07-23T03:45:29;15.00;99.90
35373;DHT22;21476;51.652;7.852;2022-07-23T03:47:54;15.00;99.90
35373;DHT22;21476;51.652;7.852;2022-07-23T03:50:20;15.00;99.90
35373;DHT22;21476;51.652;7.852;2022-07-23T03:52:46;15.00;99.90
35373;DHT22;21476;51.652;7.852;2022-07-23T03:55:12;15.00;99.90
35373;DHT22;21476;51.652;7.852;2022-07-23T03:57:38;14.90;99.90
35373;DHT22;21476;51.652;7.852;2022-07-23T04:00:05;14.90;99.90
35373;DHT22;21476;51.652;7.852;2022-07-23T04:02:32;15.00;99.90
35373;DHT22;21476;51.652;7.852;2022-07-23T04:04:58;15.00;99.90
35373;DHT22;21476;51.652;7.852;2022-07-23T04:07:24;14.90;99.90
35373;DHT22;21476;51.652;7.852;2022-07-23T04:09:50;15.00;99.90
35373;DHT22;21476;51.652;7.852;2022-07-23T04:12:16;15.00;99.90
35373;DHT22;21476;51.652;7.852;2022-07-23T04:14:41;15.00;99.90
35373;DHT22;21476;51.652;7.852;2022-07-23T04:17:07;15.10;99.90
35373;DHT22;21476;51.652;7.852;2022-07-23T04:19:33;15.10;99.90
35373;DHT22;21476;51.652;7.852;2022-07-23T04:21:58;15.30;99.90
35373;DHT22;21476;51.652;7.852;2022-07-23T04:24:24;15.70;99.90
35373;DHT22;21476;51.652;7.852;2022-07-23T04:26:50;16.10;99.90
35373;DHT22;21476;51.652;7.852;2022-07-23T04:29:15;16.60;99.90
35373;DHT22;21476;51.652;7.852;2022-07-23T04:31:41;16.90;99.90
35373;DHT22;21476;51.652;7.852;2022-07-23T04:34:06;17.30;99.90
35373;DHT22;21476;51.652;7.852;2022-07-23T04:36:32;17.80;99.90
35373;DHT22;21476;51.652;7.852;2022-07-23T04:38:58;18.40;99.90
35373;DHT22;21476;51.652;7.852;2022-07-23T04:41:23;18.60;99.90
35373;DHT22;21476;51.652;7.852;2022-07-23T04:43:49;18.90;99.90
35373;DHT22;21476;51.652;7.852;2022-07-23T04:46:15;19.10;99.90
35373;DHT22;21476;51.652;7.852;2022-07-23T04:48:40;19.50;99.90
35373;DHT22;21476;51.652;7.852;2022-07-23T04:51:07;19.70;99.90
35373;DHT22;21476;51.652;7.852;2022-07-23T04:53:33;19.90;99.90
35373;DHT22;21476;51.652;7.852;2022-07-23T04:55:58;20.30;99.90
35373;DHT22;21476;51.652;7.852;2022-07-23T04:58:24;20.50;99.90
35373;DHT22;21476;51.652;7.852;2022-07-23T05:00:50;20.80;99.90
35373;DHT22;21476;51.652;7.852;2022-07-23T05:03:15;21.10;99.90
35373;DHT22;21476;51.652;7.852;2022-07-23T05:05:41;21.10;99.90
35373;DHT22;21476;51.652;7.852;2022-07-23T05:08:06;21.30;99.90
35373;DHT22;21476;51.652;7.852;2022-07-23T05:10:33;21.70;99.90
35373;DHT22;21476;51.652;7.852;2022-07-23T05:12:58;22.20;99.90
35373;DHT22;21476;51.652;7.852;2022-07-23T05:15:24;22.30;99.90
35373;DHT22;21476;51.652;7.852;2022-07-23T05:17:50;22.30;99.90
35373;DHT22;21476;51.652;7.852;2022-07-23T05:20:16;23.20;99.90
35373;DHT22;21476;51.652;7.852;2022-07-23T05:22:41;23.40;99.90
35373;DHT22;21476;51.652;7.852;2022-07-23T05:25:07;23.30;99.90
35373;DHT22;21476;51.652;7.852;2022-07-23T05:27:33;23.40;99.90
35373;DHT22;21476;51.652;7.852;2022-07-23T05:29:59;23.90;99.90
35373;DHT22;21476;51.652;7.852;2022-07-23T05:32:25;23.40;99.90
35373;DHT22;21476;51.652;7.852;2022-07-23T05:34:50;23.50;99.90
35373;DHT22;21476;51.652;7.852;2022-07-23T05:37:16;23.80;99.90
35373;DHT22;21476;51.652;7.852;2022-07-23T05:39:42;23.80;99.90
35373;DHT22;21476;51.652;7.852;2022-07-23T05:42:08;23.90;99.90
35373;DHT22;21476;51.652;7.852;2022-07-23T05:44:33;23.60;99.90
35373;DHT22;21476;51.652;7.852;2022-07-23T05:46:59;23.70;99.90
35373;DHT22;21476;51.652;7.852;2022-07-23T05:49:25;24.30;99.90
35373;DHT22;21476;51.652;7.852;2022-07-23T05:51:50;24.40;99.90
35373;DHT22;21476;51.652;7.852;2022-07-23T05:54:16;24.40;99.90
35373;DHT22;21476;51.652;7.852;2022-07-23T05:56:42;25.20;99.90
35373;DHT22;21476;51.652;7.852;2022-07-23T05:59:07;25.40;99.90
35373;DHT22;21476;51.652;7.852;2022-07-23T06:01:33;26.50;99.90
35373;DHT22;21476;51.652;7.852;2022-07-23T06:03:59;26.30;99.90
35373;DHT22;21476;51.652;7.852;2022-07-23T06:06:24;26.50;99.90
35373;DHT22;21476;51.652;7.852;2022-07-23T06:08:50;26.40;99.90
35373;DHT22;21476;51.652;7.852;2022-07-23T06:11:16;27.30;99.90
35373;DHT22;21476;51.652;7.852;2022-07-23T06:13:41;26.80;99.90
35373;DHT22;21476;51.652;7.852;2022-07-23T06:16:07;26.70;99.90
35373;DHT22;21476;51.652;7.852;2022-07-23T06:18:33;27.20;99.90
35373;DHT22;21476;51.652;7.852;2022-07-23T06:20:59;27.20;99.90
35373;DHT22;21476;51.652;7.852;2022-07-23T06:23:24;27.20;99.90
35373;DHT22;21476;51.652;7.852;2022-07-23T06:25:50;27.60;99.90
35373;DHT22;21476;51.652;7.852;2022-07-23T06:28:16;27.60;99.90
35373;DHT22;21476;51.652;7.852;2022-07-23T06:30:41;27.30;99.90
35373;DHT22;21476;51.652;7.852;2022-07-23T06:33:07;27.70;99.90
35373;DHT22;21476;51.652;7.852;2022-07-23T06:35:33;28.10;99.90
35373;DHT22;21476;51.652;7.852;2022-07-23T06:37:59;27.60;99.90
35373;DHT22;21476;51.652;7.852;2022-07-23T06:40:25;27.30;99.90
35373;DHT22;21476;51.652;7.852;2022-07-23T06:42:51;27.70;99.90
35373;DHT22;21476;51.652;7.852;2022-07-23T06:45:16;27.50;99.90
35373;DHT22;21476;51.652;7.852;2022-07-23T06:47:42;27.50;99.90
35373;DHT22;21476;51.652;7.852;2022-07-23T06:50:08;28.00;99.90
35373;DHT22;21476;51.652;7.852;2022-07-23T06:52:34;28.10;99.90
35373;DHT22;21476;51.652;7.852;2022-07-23T06:55:00;27.60;99.90
35373;DHT22;21476;51.652;7.852;2022-07-23T06:57:26;26.80;99.90
35373;DHT22;21476;51.652;7.852;2022-07-23T06:59:52;26.80;99.90
35373;DHT22;21476;51.652;7.852;2022-07-23T07:02:18;27.20;99.90
35373;DHT22;21476;51.652;7.852;2022-07-23T07:04:43;26.60;99.90
35373;DHT22;21476;51.652;7.852;2022-07-23T07:07:09;27.20;99.90
35373;DHT22;21476;51.652;7.852;2022-07-23T07:09:35;28.00;99.90
35373;DHT22;21476;51.652;7.852;2022-07-23T07:12:00;28.30;99.90
35373;DHT22;21476;51.652;7.852;2022-07-23T07:14:26;27.30;99.90
35373;DHT22;21476;51.652;7.852;2022-07-23T07:16:52;26.10;99.90
35373;DHT22;21476;51.652;7.852;2022-07-23T07:19:18;25.60;99.90
35373;DHT22;21476;51.652;7.852;2022-07-23T07:21:43;24.90;99.90
35373;DHT22;21476;51.652;7.852;2022-07-23T07:24:09;24.30;99.90
35373;DHT22;21476;51.652;7.852;2022-07-23T07:26:34;23.70;99.90
35373;DHT22;21476;51.652;7.852;2022-07-23T07:29:00;22.90;99.90
35373;DHT22;21476;51.652;7.852;2022-07-23T07:31:26;22.80;99.90
35373;DHT22;21476;51.652;7.852;2022-07-23T07:33:51;22.70;99.90
35373;DHT22;21476;51.652;7.852;2022-07-23T07:36:17;22.70;99.90
35373;DHT22;21476;51.652;7.852;2022-07-23T07:38:43;22.60;99.90
35373;DHT22;21476;51.652;7.852;2022-07-23T07:41:09;22.40;99.90
35373;DHT22;21476;51.652;7.852;2022-07-23T07:43:36;22.30;99.90
35373;DHT22;21476;51.652;7.852;2022-07-23T07:46:03;22.50;99.90
35373;DHT22;21476;51.652;7.852;2022-07-23T07:48:29;22.50;99.90
35373;DHT22;21476;51.652;7.852;2022-07-23T07:50:54;23.20;99.90
35373;DHT22;21476;51.652;7.852;2022-07-23T07:53:20;23.60;99.90
35373;DHT22;21476;51.652;7.852;2022-07-23T07:55:46;23.70;99.90
35373;DHT22;21476;51.652;7.852;2022-07-23T07:58:12;23.50;99.90
35373;DHT22;21476;51.652;7.852;2022-07-23T08:00:37;23.30;99.90
35373;DHT22;21476;51.652;7.852;2022-07-23T08:03:03;23.10;99.90
35373;DHT22;21476;51.652;7.852;2022-07-23T08:05:30;22.80;99.90
35373;DHT22;21476;51.652;7.852;2022-07-23T08:07:57;22.60;99.90
35373;DHT22;21476;51.652;7.852;2022-07-23T08:10:24;22.30;99.90
35373;DHT22;21476;51.652;7.852;2022-07-23T08:12:52;22.70;99.90
35373;DHT22;21476;51.652;7.852;2022-07-23T08:15:20;23.10;99.90
35373;DHT22;21476;51.652;7.852;2022-07-23T08:17:47;23.50;99.90
35373;DHT22;21476;51.652;7.852;2022-07-23T08:20:15;23.90;99.90
35373;DHT22;21476;51.652;7.852;2022-07-23T08:25:14;24.20;99.90
35373;DHT22;21476;51.652;7.852;2022-07-23T08:27:39;23.90;99.90
35373;DHT22;21476;51.652;7.852;2022-07-23T08:30:06;23.40;99.90
35373;DHT22;21476;51.652;7.852;2022-07-23T08:32:32;23.10;99.90
35373;DHT22;21476;51.652;7.852;2022-07-23T08:34:57;22.70;99.90
35373;DHT22;21476;51.652;7.852;2022-07-23T08:37:23;22.90;99.90
35373;DHT22;21476;51.652;7.852;2022-07-23T08:39:49;23.30;99.90
35373;DHT22;21476;51.652;7.852;2022-07-23T08:42:14;23.70;99.90
35373;DHT22;21476;51.652;7.852;2022-07-23T08:44:44;24.30;99.90
35373;DHT22;21476;51.652;7.852;2022-07-23T08:47:11;24.60;99.90
35373;DHT22;21476;51.652;7.852;2022-07-23T08:49:38;24.60;99.90
35373;DHT22;21476;51.652;7.852;2022-07-23T08:52:05;24.40;99.90
35373;DHT22;21476;51.652;7.852;2022-07-23T08:54:31;24.30;99.90
35373;DHT22;21476;51.652;7.852;2022-07-23T08:56:57;24.00;99.90
35373;DHT22;21476;51.652;7.852;2022-07-23T08:59:23;24.20;99.90
35373;DHT22;21476;51.652;7.852;2022-07-23T09:01:49;24.80;99.90
35373;DHT22;21476;51.652;7.852;2022-07-23T09:04:14;25.10;99.90
35373;DHT22;21476;51.652;7.852;2022-07-23T09:06:40;25.50;99.90
35373;DHT22;21476;51.652;7.852;2022-07-23T09:09:19;25.80;99.90
35373;DHT22;21476;51.652;7.852;2022-07-23T09:11:53;26.30;99.90
35373;DHT22;21476;51.652;7.852;2022-07-23T09:14:44;26.50;99.90
35373;DHT22;21476;51.652;7.852;2022-07-23T09:17:14;26.60;99.90
35373;DHT22;21476;51.652;7.852;2022-07-23T09:19:42;26.10;99.90
35373;DHT22;21476;51.652;7.852;2022-07-23T09:22:22;25.70;99.90
35373;DHT22;21476;51.652;7.852;2022-07-23T09:25:08;25.00;99.90
35373;DHT22;21476;51.652;7.852;2022-07-23T09:27:55;24.70;99.90
35373;DHT22;21476;51.652;7.852;2022-07-23T09:30:23;24.80;99.90
35373;DHT22;21476;51.652;7.852;2022-07-23T09:35:54;25.20;99.90
35373;DHT22;21476;51.652;7.852;2022-07-23T09:38:23;25.80;99.90
35373;DHT22;21476;51.652;7.852;2022-07-23T09:41:10;26.40;99.90
35373;DHT22;21476;51.652;7.852;2022-07-23T09:43:37;26.80;99.90
35373;DHT22;21476;51.652;7.852;2022-07-23T09:46:19;27.10;99.90
35373;DHT22;21476;51.652;7.852;2022-07-23T09:48:47;27.00;99.90
35373;DHT22;21476;51.652;7.852;2022-07-23T09:51:13;26.50;99.90
35373;DHT22;21476;51.652;7.852;2022-07-23T09:53:59;25.80;99.90
35373;DHT22;21476;51.652;7.852;2022-07-23T09:56:26;25.80;99.90
35373;DHT22;21476;51.652;7.852;2022-07-23T09:58:53;26.20;99.90
35373;DHT22;21476;51.652;7.852;2022-07-23T10:01:48;26.60;99.90
35373;DHT22;21476;51.652;7.852;2022-07-23T10:04:15;26.20;99.90
35373;DHT22;21476;51.652;7.852;2022-07-23T10:06:42;25.60;99.90
35373;DHT22;21476;51.652;7.852;2022-07-23T10:09:12;25.10;99.90
35373;DHT22;21476;51.652;7.852;2022-07-23T10:11:42;25.10;99.90
35373;DHT22;21476;51.652;7.852;2022-07-23T10:14:08;25.40;99.90
35373;DHT22;21476;51.652;7.852;2022-07-23T10:16:34;26.10;99.90
35373;DHT22;21476;51.652;7.852;2022-07-23T10:19:00;26.60;99.90
35373;DHT22;21476;51.652;7.852;2022-07-23T10:29:46;27.20;99.90
35373;DHT22;21476;51.652;7.852;2022-07-23T10:35:22;27.10;99.90
35373;DHT22;21476;51.652;7.852;2022-07-23T10:37:55;27.30;99.90
35373;DHT22;21476;51.652;7.852;2022-07-23T10:40:23;27.30;99.90
35373;DHT22;21476;51.652;7.852;2022-07-23T10:42:52;27.20;99.90
35373;DHT22;21476;51.652;7.852;2022-07-23T10:45:35;27.50;99.90
35373;DHT22;21476;51.652;7.852;2022-07-23T10:48:19;27.50;99.90
35373;DHT22;21476;51.652;7.852;2022-07-23T10:51:13;27.70;99.90
35373;DHT22;21476;51.652;7.852;2022-07-23T10:59:22;27.20;99.90
35373;DHT22;21476;51.652;7.852;2022-07-23T11:01:48;27.20;99.90
35373;DHT22;21476;51.652;7.852;2022-07-23T11:04:14;26.60;99.90
35373;DHT22;21476;51.652;7.852;2022-07-23T11:09:44;26.60;99.90
35373;DHT22;21476;51.652;7.852;2022-07-23T11:15:15;27.00;99.90
35373;DHT22;21476;51.652;7.852;2022-07-23T11:27:50;27.50;99.90
35373;DHT22;21476;51.652;7.852;2022-07-23T11:35:44;27.90;99.90
35373;DHT22;21476;51.652;7.852;2022-07-23T11:38:18;28.00;99.50
35373;DHT22;21476;51.652;7.852;2022-07-23T11:40:49;27.80;99.90
35373;DHT22;21476;51.652;7.852;2022-07-23T11:43:16;28.30;99.90
35373;DHT22;21476;51.652;7.852;2022-07-23T11:45:50;28.30;99.90
35373;DHT22;21476;51.652;7.852;2022-07-23T11:48:19;28.00;98.90
35373;DHT22;21476;51.652;7.852;2022-07-23T11:50:46;27.60;99.80
35373;DHT22;21476;51.652;7.852;2022-07-23T11:53:12;27.10;99.90
35373;DHT22;21476;51.652;7.852;2022-07-23T11:55:37;27.00;99.90
35373;DHT22;21476;51.652;7.852;2022-07-23T11:58:04;27.00;99.90
35373;DHT22;21476;51.652;7.852;2022-07-23T12:00:30;27.30;99.90
35373;DHT22;21476;51.652;7.852;2022-07-23T12:03:01;27.50;99.70
35373;DHT22;21476;51.652;7.852;2022-07-23T12:05:33;27.60;99.80
35373;DHT22;21476;51.652;7.852;2022-07-23T12:08:00;27.60;99.40
35373;DHT22;21476;51.652;7.852;2022-07-23T12:12:58;27.80;99.10
35373;DHT22;21476;51.652;7.852;2022-07-23T12:15:30;28.00;98.00
35373;DHT22;21476;51.652;7.852;2022-07-23T12:18:01;27.90;99.70
35373;DHT22;21476;51.652;7.852;2022-07-23T12:20:30;28.00;98.90
35373;DHT22;21476;51.652;7.852;2022-07-23T12:22:59;28.00;98.90
35373;DHT22;21476;51.652;7.852;2022-07-23T12:25:28;28.10;99.30
35373;DHT22;21476;51.652;7.852;2022-07-23T12:28:08;28.20;98.00
35373;DHT22;21476;51.652;7.852;2022-07-23T12:30:45;27.80;98.10
35373;DHT22;21476;51.652;7.852;2022-07-23T12:33:38;27.40;99.00
35373;DHT22;21476;51.652;7.852;2022-07-23T12:36:04;27.50;99.60
35373;DHT22;21476;51.652;7.852;2022-07-23T12:38:38;27.60;98.90
35373;DHT22;21476;51.652;7.852;2022-07-23T12:41:04;27.60;99.50
35373;DHT22;21476;51.652;7.852;2022-07-23T12:43:37;27.70;99.90
35373;DHT22;21476;51.652;7.852;2022-07-23T12:48:40;27.70;98.70
35373;DHT22;21476;51.652;7.852;2022-07-23T12:51:25;27.80;98.40
35373;DHT22;21476;51.652;7.852;2022-07-23T12:53:54;27.80;99.20
35373;DHT22;21476;51.652;7.852;2022-07-23T12:56:31;27.60;99.00
35373;DHT22;21476;51.652;7.852;2022-07-23T12:58:58;27.50;99.90
35373;DHT22;21476;51.652;7.852;2022-07-23T13:03:59;27.80;98.90
35373;DHT22;21476;51.652;7.852;2022-07-23T13:06:30;28.00;99.30
35373;DHT22;21476;51.652;7.852;2022-07-23T13:08:56;28.00;98.60
35373;DHT22;21476;51.652;7.852;2022-07-23T13:11:22;27.90;97.70
35373;DHT22;21476;51.652;7.852;2022-07-23T13:13:49;27.50;98.60
35373;DHT22;21476;51.652;7.852;2022-07-23T13:16:15;27.70;98.20
35373;DHT22;21476;51.652;7.852;2022-07-23T13:18:40;27.70;98.40
35373;DHT22;21476;51.652;7.852;2022-07-23T13:21:12;27.70;98.80
35373;DHT22;21476;51.652;7.852;2022-07-23T13:23:38;27.60;98.30
35373;DHT22;21476;51.652;7.852;2022-07-23T13:26:04;27.60;98.80
35373;DHT22;21476;51.652;7.852;2022-07-23T13:28:30;27.60;98.30
35373;DHT22;21476;51.652;7.852;2022-07-23T13:30:56;27.60;98.80
35373;DHT22;21476;51.652;7.852;2022-07-23T13:33:23;27.50;98.00
35373;DHT22;21476;51.652;7.852;2022-07-23T13:35:50;27.50;98.40
35373;DHT22;21476;51.652;7.852;2022-07-23T13:38:17;27.70;98.80
35373;DHT22;21476;51.652;7.852;2022-07-23T13:40:44;27.80;98.30
35373;DHT22;21476;51.652;7.852;2022-07-23T13:43:12;27.50;97.80
35373;DHT22;21476;51.652;7.852;2022-07-23T13:45:39;27.20;98.00
35373;DHT22;21476;51.652;7.852;2022-07-23T13:48:06;26.90;98.70
35373;DHT22;21476;51.652;7.852;2022-07-23T13:50:32;26.70;99.40
35373;DHT22;21476;51.652;7.852;2022-07-23T13:53:04;26.60;99.10
35373;DHT22;21476;51.652;7.852;2022-07-23T13:55:31;26.30;99.50
35373;DHT22;21476;51.652;7.852;2022-07-23T13:57:58;26.10;99.90
35373;DHT22;21476;51.652;7.852;2022-07-23T14:00:24;26.20;99.90
35373;DHT22;21476;51.652;7.852;2022-07-23T14:02:50;26.20;99.60
35373;DHT22;21476;51.652;7.852;2022-07-23T14:05:16;26.30;99.60
35373;DHT22;21476;51.652;7.852;2022-07-23T14:07:41;26.30;99.30
35373;DHT22;21476;51.652;7.852;2022-07-23T14:10:10;26.40;99.00
35373;DHT22;21476;51.652;7.852;2022-07-23T14:12:36;26.50;99.00
35373;DHT22;21476;51.652;7.852;2022-07-23T14:15:02;26.60;98.60
35373;DHT22;21476;51.652;7.852;2022-07-23T14:17:29;26.60;98.60
35373;DHT22;21476;51.652;7.852;2022-07-23T14:19:55;26.70;98.20
35373;DHT22;21476;51.652;7.852;2022-07-23T14:22:20;26.70;98.30
35373;DHT22;21476;51.652;7.852;2022-07-23T14:24:46;26.60;99.00
35373;DHT22;21476;51.652;7.852;2022-07-23T14:27:12;26.70;98.40
35373;DHT22;21476;51.652;7.852;2022-07-23T14:29:37;26.60;98.50
35373;DHT22;21476;51.652;7.852;2022-07-23T14:32:03;26.70;99.10
35373;DHT22;21476;51.652;7.852;2022-07-23T14:34:29;26.50;98.60
35373;DHT22;21476;51.652;7.852;2022-07-23T14:36:55;26.10;98.60
35373;DHT22;21476;51.652;7.852;2022-07-23T14:39:21;25.80;99.60
35373;DHT22;21476;51.652;7.852;2022-07-23T14:41:47;25.60;99.90
35373;DHT22;21476;51.652;7.852;2022-07-23T14:44:12;25.60;99.90
35373;DHT22;21476;51.652;7.852;2022-07-23T14:46:38;25.70;99.60
35373;DHT22;21476;51.652;7.852;2022-07-23T14:49:04;25.70;99.90
35373;DHT22;21476;51.652;7.852;2022-07-23T14:51:30;25.80;99.50
35373;DHT22;21476;51.652;7.852;2022-07-23T14:53:56;25.80;99.40
35373;DHT22;21476;51.652;7.852;2022-07-23T14:56:22;25.80;99.60
35373;DHT22;21476;51.652;7.852;2022-07-23T14:58:48;25.90;99.90
35373;DHT22;21476;51.652;7.852;2022-07-23T15:01:13;25.90;98.90
35373;DHT22;21476;51.652;7.852;2022-07-23T15:03:39;25.90;99.60
35373;DHT22;21476;51.652;7.852;2022-07-23T15:06:05;26.00;98.90
35373;DHT22;21476;51.652;7.852;2022-07-23T15:08:31;26.00;99.40
35373;DHT22;21476;51.652;7.852;2022-07-23T15:10:57;26.00;99.90
35373;DHT22;21476;51.652;7.852;2022-07-23T15:13:23;26.00;99.90
35373;DHT22;21476;51.652;7.852;2022-07-23T15:15:48;26.00;99.80
35373;DHT22;21476;51.652;7.852;2022-07-23T15:18:15;25.90;99.90
35373;DHT22;21476;51.652;7.852;2022-07-23T15:20:41;26.00;99.90
35373;DHT22;21476;51.652;7.852;2022-07-23T15:23:07;25.90;99.50
35373;DHT22;21476;51.652;7.852;2022-07-23T15:25:34;25.80;99.90
35373;DHT22;21476;51.652;7.852;2022-07-23T15:28:00;25.70;99.90
35373;DHT22;21476;51.652;7.852;2022-07-23T15:30:26;25.70;99.90
35373;DHT22;21476;51.652;7.852;2022-07-23T15:32:52;25.70;99.90
35373;DHT22;21476;51.652;7.852;2022-07-23T15:35:19;25.70;99.90
35373;DHT22;21476;51.652;7.852;2022-07-23T15:37:45;25.70;99.90
35373;DHT22;21476;51.652;7.852;2022-07-23T15:40:12;25.60;99.90
35373;DHT22;21476;51.652;7.852;2022-07-23T15:42:37;25.60;99.90
35373;DHT22;21476;51.652;7.852;2022-07-23T15:45:04;25.60;99.90
35373;DHT22;21476;51.652;7.852;2022-07-23T15:47:30;25.60;99.90
35373;DHT22;21476;51.652;7.852;2022-07-23T15:49:56;25.60;99.70
35373;DHT22;21476;51.652;7.852;2022-07-23T15:52:22;25.60;99.90
35373;DHT22;21476;51.652;7.852;2022-07-23T15:54:48;25.70;99.90
35373;DHT22;21476;51.652;7.852;2022-07-23T15:57:13;25.60;99.90
35373;DHT22;21476;51.652;7.852;2022-07-23T15:59:39;25.60;99.90
35373;DHT22;21476;51.652;7.852;2022-07-23T16:02:05;25.50;99.90
35373;DHT22;21476;51.652;7.852;2022-07-23T16:04:32;25.50;99.90
35373;DHT22;21476;51.652;7.852;2022-07-23T16:06:58;25.50;99.90
35373;DHT22;21476;51.652;7.852;2022-07-23T16:09:24;25.60;99.90
35373;DHT22;21476;51.652;7.852;2022-07-23T16:11:50;25.60;99.90
35373;DHT22;21476;51.652;7.852;2022-07-23T16:14:16;25.50;99.90
35373;DHT22;21476;51.652;7.852;2022-07-23T16:16:46;25.50;99.90
35373;DHT22;21476;51.652;7.852;2022-07-23T16:19:12;25.40;99.90
35373;DHT22;21476;51.652;7.852;2022-07-23T16:21:37;25.50;99.90